KPOE/POE METAR and TAF weather

Enter ICAO airport designator
Station Type Date Time Source
KPOE METAR 2019/05/25 15:58 UTC NOAA

KPOE 251558Z AUTO 17009KT 10SM FEW021 SCT030 29/21 A3012 RMK AO2 SLP198 T02850214


Station Type Date Time Source
KPOE Decoded METAR 2019/05/25 15:58 UTC NOAA

Fort Polk, Polk AAF Ft Polk, LA, United States (KPOE) 31-03N 093-11-38W
May 25, 2019 - 11:58 AM EDT / 2019.05.25 1558 UTC
Wind: from the S (170 degrees) at 10 MPH (9 KT):0
Visibility: 10 mile(s):0
Sky conditions: partly cloudy
Temperature: 83.3 F (28.5 C)
Dew Point: 70.5 F (21.4 C)
Relative Humidity: 65%
Pressure (altimeter): 30.12 in. Hg (1019 hPa)
ob: KPOE 251558Z AUTO 17009KT 10SM FEW021 SCT030 29/21 A3012 RMK AO2 SLP198 T02850214
cycle: 16

Station Type Date Time Source
KPOE TAF 2019/05/25 14:32 UTC NOAA

TAF
AMD KPOE 251409Z 2514/2614 17009KT 8000 BR OVC005 QNH3000INS
TEMPO 2514/2516 1600 BR OVC004
BECMG 2515/2516 17009KT 9999 NSW FEW040 QNH2996INS
BECMG 2608/2609 VRB06KT 9999 SCT015 QNH3004INS TX32/2520Z TN21/2514Z

Example: see airport list